Forside
METAR-TAF:

METAR-TAF

Lufthavne :

Iowa City Municipal Airport

Iowa City, Iowa, USA

Breddekreds: 41-37-58N, længdekreds: 091-32-35W, højde: 203 m

Aktuelle vejr

Denne rapport blev lavet for 18 minutter siden, kl. 23:52 UTC
Vind 4 kt fra øst
Temperatur 31°C
Fugtighed 49%
Tryk 1015 hPa
Sigt: 16.1 km
Nogle få skyer i en højde af 5500 ft
Nogle få skyer i en højde af 7000 ft

METAR: KIOW 042352Z AUTO 09004KT 10SM FEW055 FEW070 31/19 A2998 RMK AO2 SLP148 T03060189 10322 20300 56012

Tid: 19:10 (00:10 UTC)


TAF: fraværende

Vejrobservationer og prognoser fra mere end 4000 lufthavne (METAR og TAF).

De gule og røde prikker repræsenterer de meteorologiske stationer.

Flyt musen over at se navnet på stationen.

Så klik over at se vejr observationer og prognoser.

At skifte det kort: Klik på de grønne knapper med et sort kors for at zoome ind; på den grønne knap med en bindestreg for at zoome ud; eller på de grønne pile for tilstødende kort.


METAR-TAF: